• Join FlightAware (Why Join?)
  • Login
  • US Flag 
08:17AM EST


 

Airport Tracker/Info


-or-


 

Live Flight TrackerFlight Track Log ✈ TMC875 ✈ 17-Apr-2013 ✈ KBTR - KBOS

Flight Track Log - Related Links

Times and Time Zones

All times are in EDT time to prevent confusion due to time zone crossing. See the TMC875 flight status page for this flight to view local times or setup timezone preferences in your user account.

Time Position Orientation Groundspeed Altitude Reporting Facility
EDT Latitude Longitude Course Direction KTS MPH feet Rate Location/Type
10:17PM 30.5158 -91.1100 48° Northeast 180 207 3,100  Level Houston Center
10:18PM 30.5483 -91.0511 57° Northeast 223 257 5,500 2,520 Climbing Houston Center
10:19PM 30.5900 -90.9769 57° Northeast 272 313 8,300 2,700 Climbing Houston Center
10:20PM 30.6306 -90.8942 60° Northeast 294 338 11,100 2,640 Climbing Houston Center
10:21PM 30.6775 -90.7967 61° Northeast 310 357 13,700 2,580 Climbing Houston Center
10:22PM 30.7333 -90.7006 56° Northeast 322 371 16,400 2,280 Climbing Houston Center
10:23PM 31.0084 -90.5287 48° Northeast  Level Estimated
10:23PM 30.7942 -90.6192 49° Northeast 329 379 18,400  Level Houston Center
10:24PM 30.8581 -90.5311 50° Northeast 350 403 20,100 1,620 Climbing Houston Center
10:25PM 30.9250 -90.4400 49° Northeast 366 421 21,800 1,620 Climbing Houston Center
10:26PM 30.9956 -90.3442 49° Northeast 383 441 23,500 1,620 Climbing Houston Center
10:27PM 31.0672 -90.2442 50° Northeast 398 458 25,200 1,560 Climbing Houston Center
10:28PM 31.1411 -90.1425 50° Northeast 407 468 26,700 1,260 Climbing Houston Center
10:29PM 31.2181 -90.0353 50° Northeast 424 488 27,900 1,200 Climbing Houston Center
10:30PM 31.2972 -89.9267 50° Northeast 435 501 29,200 1,200 Climbing Houston Center
10:31PM 31.3769 -89.8156 50° Northeast 444 511 30,400 1,140 Climbing Houston Center
10:32PM 31.4569 -89.7042 50° Northeast 446 513 31,600 1,200 Climbing Houston Center
10:33PM 31.5372 -89.5931 50° Northeast 446 513 32,900 1,320 Climbing Houston Center
10:34PM 31.6272 -89.4647 51° Northeast 447 514 34,300 1,260 Climbing Houston Center
10:35PM 31.7061 -89.3556 50° Northeast 439 505 35,500 1,080 Climbing Houston Center
10:36PM 31.7261 -89.3267 51° Northeast 438 504 35,800 1,140 Climbing Memphis Center
10:37PM 31.8025 -89.2183 50° Northeast 433 498 37,000 1,200 Climbing Memphis Center
10:38PM 31.8725 -89.1197 50° Northeast 416 479 38,200 1,140 Climbing Memphis Center
10:39PM 31.9525 -89.0033 51° Northeast 409 471 39,300 900 Climbing Memphis Center
10:40PM 32.0286 -88.8994 49° Northeast 409 471 40,000 540 Climbing Memphis Center
10:41PM 32.0964 -88.8003 51° Northeast 403 464 40,400 360 Climbing Memphis Center
10:42PM 32.1681 -88.7008 50° Northeast 403 464 40,800 300 Climbing Memphis Center
10:43PM 32.2378 -88.5989 51° Northeast 403 464 41,000 60 Climbing Memphis Center
10:44PM 32.3031 -88.5042 51° Northeast 403 464 41,000  Level Memphis Center
10:46PM 32.4869 -88.2444 50° Northeast 439 505 41,000  Level Atlanta Center
10:47PM 32.5636 -88.1325 51° Northeast 439 505 41,000  Level Atlanta Center
10:48PM 32.6447 -88.0178 50° Northeast 439 505 41,000  Level Atlanta Center
10:49PM 32.7217 -87.8978 53° Northeast 445 512 41,000  Level Atlanta Center
10:50PM 32.7981 -87.7825 52° Northeast 451 519 41,000  Level Atlanta Center
10:51PM 32.8767 -87.6697 50° Northeast 446 513 41,000  Level Atlanta Center
10:52PM 32.9531 -87.5517 52° Northeast 446 513 41,000  Level Atlanta Center
10:53PM 33.0381 -87.4261 51° Northeast 444 511 41,000  Level Atlanta Center
10:54PM 33.1142 -87.3075 53° Northeast 450 518 41,000  Level Atlanta Center
10:55PM 33.1925 -87.1914 51° Northeast 455 524 41,000  Level Atlanta Center
10:56PM 33.2683 -87.0747 52° Northeast 455 524 41,000  Level Atlanta Center
10:57PM 33.3486 -86.9583 50° Northeast 455 524 41,000  Level Atlanta Center
10:58PM 33.4264 -86.8414 51° Northeast 455 524 41,000  Level Atlanta Center
10:59PM 33.5042 -86.7219 52° Northeast 455 524 41,000  Level Atlanta Center
11:00PM 33.5839 -86.6047 51° Northeast 455 524 41,000  Level Atlanta Center
11:01PM 33.6614 -86.4847 52° Northeast 455 524 41,000  Level Atlanta Center
11:02PM 33.7389 -86.3669 52° Northeast 455 524 41,000  Level Atlanta Center
11:03PM 33.8161 -86.2492 52° Northeast 455 524 41,000  Level Atlanta Center
11:04PM 33.8956 -86.1261 52° Northeast 455 524 41,000  Level Atlanta Center
11:05PM 33.9747 -86.0053 52° Northeast 455 524 41,000  Level Atlanta Center
11:06PM 34.0517 -85.8867 52° Northeast 455 524 41,000  Level Atlanta Center
11:07PM 34.1242 -85.7828 50° Northeast 449 517 41,000  Level Atlanta Center
11:08PM 34.2008 -85.6664 51° Northeast 444 511 41,000  Level Atlanta Center
11:09PM 34.2778 -85.5422 53° Northeast 450 518 41,000  Level Atlanta Center
11:10PM 34.3542 -85.4228 52° Northeast 450 518 41,000  Level Atlanta Center
11:11PM 34.4306 -85.2956 54° Northeast 450 518 41,000  Level Atlanta Center
11:12PM 34.5197 -85.1631 51° Northeast 455 524 41,000  Level Atlanta Center
11:13PM 34.5958 -85.0406 53° Northeast 461 531 41,000  Level Atlanta Center
11:14PM 34.6572 -84.9428 53° Northeast 461 531 41,000  Level Atlanta Center
11:15PM 34.7394 -84.8047 54° Northeast 455 524 41,000  Level Atlanta Center
11:16PM 34.8194 -84.6814 52° Northeast 455 524 41,000  Level Atlanta Center
11:17PM 34.8950 -84.5553 54° Northeast 455 524 41,000  Level Atlanta Center
11:18PM 34.9728 -84.4317 52° Northeast 460 529 41,000  Level Atlanta Center
11:19PM 35.0503 -84.3025 54° Northeast 460 529 41,000  Level Atlanta Center
11:20PM 35.1278 -84.1783 53° Northeast 460 529 41,000  Level Atlanta Center
11:21PM 35.2072 -84.0514 53° Northeast 460 529 41,000  Level Atlanta Center
11:22PM 35.2842 -83.9242 53° Northeast 460 529 41,000  Level Atlanta Center
11:23PM 35.3614 -83.7994 53° Northeast 460 529 41,000  Level Atlanta Center
11:24PM 35.4381 -83.6717 54° Northeast 460 529 41,000  Level Atlanta Center
11:25PM 35.5169 -83.5439 53° Northeast 460 529 41,000  Level Atlanta Center
11:26PM 35.5936 -83.4156 54° Northeast 460 529 41,000  Level Atlanta Center
11:27PM 35.6803 -83.2717 53° Northeast 466 536 41,000  Level Atlanta Center
11:28PM 35.7547 -83.1431 54° Northeast 461 531 41,000  Level Atlanta Center
11:29PM 35.8328 -83.0117 54° Northeast 461 531 41,000  Level Atlanta Center
11:30PM 35.9089 -82.8825 54° Northeast 466 536 41,000  Level Atlanta Center
11:31PM 35.9869 -82.7531 53° Northeast 461 531 41,000  Level Atlanta Center
11:32PM 36.0625 -82.6233 54° Northeast 461 531 41,000  Level Atlanta Center
11:33PM 36.1383 -82.4961 54° Northeast 461 531 41,000  Level Atlanta Center
11:34PM 36.2136 -82.3661 54° Northeast 461 531 41,000  Level Atlanta Center
11:35PM 36.2889 -82.2331 55° Northeast 461 531 41,000  Level Atlanta Center
11:36PM 36.3664 -82.1050 53° Northeast 461 531 41,000  Level Atlanta Center
11:37PM 36.4414 -81.9767 54° Northeast 456 525 41,000  Level Atlanta Center
11:38PM 36.5122 -81.8586 53° Northeast 461 531 41,000  Level Atlanta Center
11:39PM 36.5911 -81.7169 55° Northeast 456 525 41,000  Level Atlanta Center
11:40PM 36.6656 -81.5853 55° Northeast 456 525 41,000  Level Atlanta Center
11:41PM 36.7322 -81.4692 54° Northeast 462 532 41,000  Level Atlanta Center
11:42PM 36.8083 -81.3319 55° Northeast 444 511 41,000  Level Atlanta Center
11:44PM 36.9367 -81.1061 55° Northeast 441 507 41,000  Level Washington Center
11:45PM 37.0094 -80.9736 55° Northeast 441 507 41,000  Level Washington Center
11:46PM 37.0817 -80.8511 54° Northeast 446 513 41,000  Level Washington Center
11:47PM 37.1494 -80.7306 55° Northeast 453 521 41,000  Level Washington Center
11:48PM 37.2194 -80.6022 56° Northeast 453 521 41,000  Level Washington Center
11:49PM 37.2917 -80.4711 55° Northeast 453 521 41,000  Level Washington Center
11:50PM 37.3658 -80.3400 55° Northeast 453 521 41,000  Level Washington Center
11:51PM 37.4444 -80.1958 55° Northeast 453 521 41,000  Level Washington Center
11:52PM 37.5206 -80.0617 54° Northeast 453 521 41,000  Level Washington Center
11:53PM 37.5922 -79.9294 56° Northeast 453 521 41,000  Level Washington Center
11:54PM 37.6636 -79.7947 56° Northeast 460 529 41,000  Level Washington Center
11:55PM 37.7392 -79.6622 54° Northeast 460 529 41,000  Level Washington Center
11:56PM 37.8125 -79.5269 56° Northeast 460 529 41,000  Level Washington Center
11:57PM 37.8769 -79.4039 56° Northeast 465 535 41,000  Level Washington Center
11:58PM 37.9500 -79.2706 55° Northeast 465 535 41,000  Level Washington Center
11:59PM 38.0208 -79.1344 57° Northeast 465 535 41,000  Level Washington Center
12:00AM 38.0914 -79.0006 56° Northeast 460 529 41,000  Level Washington Center
12:01AM 38.1686 -78.8536 56° Northeast 454 522 41,000  Level Washington Center
12:02AM 38.2389 -78.7217 56° Northeast 454 522 41,000  Level Washington Center
12:03AM 38.2961 -78.6050 58° Northeast 444 511 41,000  Level Washington Center
12:04AM 38.3639 -78.4728 57° Northeast 444 511 41,000  Level Washington Center
12:05AM 38.4317 -78.3403 57° Northeast 439 505 41,000  Level Washington Center
12:06AM 38.5014 -78.2075 56° Northeast 439 505 41,000  Level Washington Center
12:07AM 38.5689 -78.0744 57° Northeast 445 512 41,000  Level Washington Center
12:08AM 38.6361 -77.9411 57° Northeast 450 518 41,000  Level Washington Center
12:09AM 38.7097 -77.7919 58° Northeast 450 518 41,000  Level Washington Center
12:10AM 38.7789 -77.6556 57° Northeast 455 524 41,000  Level Washington Center
12:11AM 38.8481 -77.5189 57° Northeast 450 518 41,000  Level Washington Center
12:12AM 38.9167 -77.3844 57° Northeast 450 518 41,000  Level Washington Center
12:13AM 38.9853 -77.2472 57° Northeast 450 518 41,000  Level Washington Center
12:15AM 39.1342 -76.9492 57° Northeast 446 513 41,000  Level New York Center
12:16AM 39.2017 -76.8156 57° Northeast 446 513 41,000  Level New York Center
12:17AM 39.2669 -76.6789 58° Northeast 446 513 41,000  Level New York Center
12:18AM 39.3342 -76.5450 57° Northeast 441 507 41,000  Level New York Center
12:19AM 39.3989 -76.4106 58° Northeast 441 507 41,000  Level New York Center
12:20AM 39.4639 -76.2758 58° Northeast 441 507 41,000  Level New York Center
12:21AM 39.5394 -76.1256 57° Northeast 441 507 41,000  Level New York Center
12:22AM 39.6061 -75.9878 58° Northeast 441 507 41,000  Level New York Center
12:23AM 39.6747 -75.8525 57° Northeast 446 513 41,000  Level New York Center
12:24AM 39.7408 -75.7142 58° Northeast 446 513 41,000  Level New York Center
12:25AM 39.8114 -75.5758 56° Northeast 446 513 41,000  Level New York Center
12:26AM 39.8794 -75.4372 57° Northeast 446 513 41,000  Level New York Center
12:27AM 39.9494 -75.2983 57° Northeast 446 513 41,000  Level New York Center
12:28AM 40.0194 -75.1592 57° Northeast 446 513 41,000  Level New York Center
12:29AM 40.0872 -75.0142 59° Northeast 451 519 41,000 -60 Level New York Center
12:30AM 40.1525 -74.8769 58° Northeast 451 519 40,900  Descending New York Center
12:31AM 40.2156 -74.7394 59° Northeast 445 512 41,000  Climbing New York Center
12:34AM 40.3786 -74.3961 58° Northeast 457 526 41,000  Level Boston Center
12:35AM 40.4433 -74.2561 59° Northeast 452 520 41,000  Level Boston Center
12:36AM 40.5122 -74.1161 57° Northeast 447 514 41,000  Level Boston Center
12:37AM 40.5725 -73.9947 57° Northeast 447 514 41,000  Level Boston Center
12:38AM 40.6389 -73.8567 58° Northeast 447 514 41,000  Level Boston Center
12:39AM 40.7031 -73.7131 59° Northeast 453 521 41,000  Level Boston Center
12:40AM 40.7736 -73.5472 61° Northeast 458 527 41,000  Level Boston Center
12:41AM 40.8394 -73.4058 58° Northeast 458 527 41,000  Level Boston Center
12:42AM 40.9008 -73.2803 57° Northeast 458 527 41,000  Level Boston Center
12:43AM 40.9664 -73.1383 59° Northeast 452 520 41,000  Level Boston Center
12:44AM 41.0319 -72.9931 59° Northeast 452 520 41,000 -780 Level Boston Center
12:45AM 41.0972 -72.8506 59° Northeast 452 520 39,500 -2,160 Descending Boston Center
12:46AM 41.1622 -72.7103 58° Northeast 447 514 36,700 -2,820 Descending Boston Center
12:47AM 41.2228 -72.5697 60° Northeast 447 514 33,900 -3,060 Descending Boston Center
12:48AM 41.2981 -72.4069 58° Northeast 461 531 30,600 -2,820 Descending Boston Center
12:49AM 41.3478 -72.2881 61° Northeast 461 531 28,300 -2,700 Descending Boston Center
12:50AM 41.4206 -72.1300 58° Northeast 461 531 25,200 -3,000 Descending Boston Center
12:51AM 41.4825 -71.9883 60° Northeast 456 525 22,300 -3,060 Descending Boston Center
12:52AM 41.5486 -71.8381 60° Northeast 438 504 19,100 -2,760 Descending Boston Center
12:53AM 41.6061 -71.7072 60° Northeast 418 481 16,800 -2,460 Descending Boston Center
12:54AM 41.6553 -71.5900 61° Northeast 407 468 14,200 -2,640 Descending Boston Center
12:55AM 41.7144 -71.4500 60° Northeast 394 453 11,600 -1,620 Descending Boston Center
12:56AM 41.7614 -71.3436 59° Northeast 375 432 11,000 -300 Descending Boston Center
12:57AM 41.8186 -71.2089 60° Northeast 375 432 11,000  Level Boston Center
12:58AM 41.8833 -71.0667 59° Northeast 386 444 11,000  Level KA90
12:59AM 41.9500 -70.9333 56° Northeast 383 441 11,000  Level KA90
01:00AM 41.9808 -70.8567 62° Northeast 376 433 11,000 -720 Level Boston Center
01:01AM 42.0314 -70.7492 58° Northeast 343 395 9,800 -1,260 Descending Boston Center
01:02AM 42.0781 -70.6639 54° Northeast 305 351 8,600 -1,560 Descending Boston Center
01:03AM 42.1528 -70.6394 14° North 263 303 6,700 -1,920 Descending Boston Center
01:04AM 42.2158 -70.6711 340° North 226 260 4,800 -1,380 Descending Boston Center
01:05AM 42.2686 -70.7286 321° Northwest 220 253 4,000 -660 Descending Boston Center
01:06AM 42.3031 -70.8036 302° West 231 266 3,500 -900 Descending Boston Center
01:07AM 42.3208 -70.8733 289° West 208 239 2,200 -1,020 Descending Boston Center
01:08AM 42.3342 -70.9431 285° West 207 238 1,500 -900 Descending Boston Center
01:09AM 42.3450 -70.9739 295° West 162 186 500 -1,020 Descending Boston Center